createdAt,value
2023-11-10T00:00:37.504Z,98783.03
2023-11-10T00:03:07.127Z,98781.19
2023-11-10T00:05:35.520Z,98785.69
2023-11-10T00:08:04.790Z,98779.84
2023-11-10T00:10:32.603Z,98778.47
2023-11-10T00:13:00.706Z,98783.84
2023-11-10T00:15:28.569Z,98784.31
2023-11-10T00:17:58.039Z,98764.47
2023-11-10T00:20:26.712Z,98786.97
2023-11-10T00:22:54.679Z,98783.78
2023-11-10T00:25:23.824Z,98776.94
2023-11-10T00:27:52.331Z,98776.16
2023-11-10T00:30:20.491Z,98775.34
2023-11-10T00:32:48.446Z,98779.59
2023-11-10T00:35:16.793Z,98772.47
2023-11-10T00:37:45.068Z,98769.88
2023-11-10T00:40:13.662Z,98766.69
2023-11-10T00:42:43.054Z,98776.44
2023-11-10T00:45:11.619Z,98774.38
2023-11-10T00:47:39.361Z,98773.31
2023-11-10T00:50:08.659Z,98768.28
2023-11-10T00:52:36.389Z,98766.38
2023-11-10T00:55:07.245Z,98771.72
2023-11-10T00:57:35.424Z,98764.28
2023-11-10T01:00:05.992Z,98765.88
2023-11-10T01:02:33.753Z,98762.41
2023-11-10T01:05:01.867Z,98755.78
2023-11-10T01:07:29.611Z,98766.84
2023-11-10T01:09:56.364Z,98764.72
2023-11-10T01:12:24.463Z,98760.44
2023-11-10T01:14:52.420Z,98760.72
2023-11-10T01:17:21.615Z,98755.63
2023-11-10T01:19:49.707Z,98761.97
2023-11-10T01:22:17.446Z,98755.56
2023-11-10T01:24:45.250Z,98746.59
2023-11-10T01:27:13.413Z,98762.41
2023-11-10T01:29:41.132Z,98756.31
2023-11-10T01:32:09.141Z,98742.69
2023-11-10T01:34:38.694Z,98732.44
2023-11-10T01:37:07.806Z,98744.28
2023-11-10T01:39:35.937Z,98740.31
2023-11-10T01:42:05.832Z,98740.00
2023-11-10T01:44:34.996Z,98742.09
2023-11-10T01:47:04.845Z,98740.97
2023-11-10T01:49:33.744Z,98731.19
2023-11-10T01:52:04.850Z,98729.28
2023-11-10T01:54:35.858Z,98729.03
2023-11-10T01:57:05.568Z,98734.09
2023-11-10T01:59:34.797Z,98713.94
2023-11-10T02:02:03.208Z,98720.88
2023-11-10T02:04:33.597Z,98724.00
2023-11-10T02:07:02.835Z,98731.13
2023-11-10T02:09:30.883Z,98718.97
2023-11-10T02:11:58.680Z,98721.63
2023-11-10T02:14:26.542Z,98736.41
2023-11-10T02:16:54.607Z,98738.81
2023-11-10T02:19:22.330Z,98735.38
2023-11-10T02:21:50.121Z,98738.34
2023-11-10T02:24:23.036Z,98733.31
2023-11-10T02:26:52.208Z,98741.47
2023-11-10T02:29:20.102Z,98735.09
2023-11-10T02:31:48.954Z,98742.50
2023-11-10T02:34:16.721Z,98737.22
2023-11-10T02:36:44.497Z,98735.16
2023-11-10T02:39:12.538Z,98733.47
2023-11-10T02:41:40.342Z,98733.72
2023-11-10T02:44:10.536Z,98746.94
2023-11-10T02:46:38.932Z,98740.84
2023-11-10T02:49:06.674Z,98747.09
2023-11-10T02:51:34.421Z,98742.91
2023-11-10T02:54:03.767Z,98742.13
2023-11-10T02:56:31.573Z,98752.53
2023-11-10T02:58:59.288Z,98753.47
2023-11-10T03:01:28.842Z,98741.97
2023-11-10T03:03:56.708Z,98739.78
2023-11-10T03:06:24.639Z,98736.03
2023-11-10T03:08:52.677Z,98739.25
2023-11-10T03:11:21.272Z,98743.50
2023-11-10T03:13:49.445Z,98742.44
2023-11-10T03:16:17.265Z,98746.66
2023-11-10T03:18:46.506Z,98746.19
2023-11-10T03:21:18.460Z,98743.22
2023-11-10T03:23:46.389Z,98749.31
2023-11-10T03:26:14.214Z,98735.41
2023-11-10T03:28:42.288Z,98738.94
2023-11-10T03:31:10.963Z,98743.34
2023-11-10T03:33:38.794Z,98748.88
2023-11-10T03:36:09.737Z,98748.88
2023-11-10T03:38:37.494Z,98744.88
2023-11-10T03:41:05.515Z,98746.16
2023-11-10T03:43:33.429Z,98745.59
2023-11-10T03:46:01.873Z,98744.25
2023-11-10T03:48:29.961Z,98730.97
2023-11-10T03:50:57.708Z,98738.88
2023-11-10T03:53:28.651Z,98731.75
2023-11-10T03:55:56.436Z,98738.31
2023-11-10T03:58:24.470Z,98733.03
2023-11-10T04:00:52.371Z,98725.59
2023-11-10T04:03:20.267Z,98728.25
2023-11-10T04:05:50.005Z,98729.03
2023-11-10T04:08:18.388Z,98727.44
2023-11-10T04:10:48.467Z,98736.72
2023-11-10T04:13:16.728Z,98733.75
2023-11-10T04:15:48.031Z,98739.03
2023-11-10T04:18:17.908Z,98742.97
2023-11-10T04:20:47.145Z,98742.41
2023-11-10T04:23:16.869Z,98744.81
2023-11-10T04:25:45.002Z,98745.69
2023-11-10T04:28:14.140Z,98741.22
2023-11-10T04:30:42.082Z,98740.88
2023-11-10T04:33:10.529Z,98741.38
2023-11-10T04:35:39.539Z,98742.19
2023-11-10T04:38:09.513Z,98746.97
2023-11-10T04:40:38.287Z,98737.69
2023-11-10T04:43:06.748Z,98734.25
2023-11-10T04:45:36.084Z,98743.44
2023-11-10T04:48:04.599Z,98738.16
2023-11-10T04:50:32.505Z,98737.69
2023-11-10T04:53:00.261Z,98745.03
2023-11-10T04:55:28.758Z,98745.03
2023-11-10T04:57:56.498Z,98737.91
2023-11-10T05:00:25.073Z,98746.66
2023-11-10T05:02:55.331Z,98742.41
2023-11-10T05:05:23.312Z,98761.38
2023-11-10T05:07:51.538Z,98757.69
2023-11-10T05:10:19.737Z,98764.56
2023-11-10T05:12:47.498Z,98760.34
2023-11-10T05:15:16.220Z,98740.25
2023-11-10T05:17:45.051Z,98738.75
2023-11-10T05:20:17.263Z,98737.63
2023-11-10T05:22:46.307Z,98736.09
2023-11-10T05:25:14.125Z,98739.28
2023-11-10T05:27:42.736Z,98741.13
2023-11-10T05:30:13.847Z,98737.19
2023-11-10T05:32:41.727Z,98743.53
2023-11-10T05:35:10.044Z,98748.72
2023-11-10T05:37:39.190Z,98752.41
2023-11-10T05:40:10.776Z,98747.13
2023-11-10T05:42:38.876Z,98755.59
2023-11-10T05:45:08.202Z,98753.22
2023-11-10T05:47:35.960Z,98761.38
2023-11-10T05:50:04.658Z,98760.09
2023-11-10T05:52:33.132Z,98749.22
2023-11-10T05:55:02.608Z,98742.31
2023-11-10T05:57:30.773Z,98744.16
2023-11-10T06:00:01.522Z,98744.41
2023-11-10T06:02:30.120Z,98735.44
2023-11-10T06:04:57.997Z,98740.72
2023-11-10T06:07:26.452Z,98734.19
2023-11-10T06:09:54.187Z,98738.16
2023-11-10T06:12:24.685Z,98723.91
2023-11-10T06:14:53.065Z,98735.28
2023-11-10T06:17:20.802Z,98725.28
2023-11-10T06:19:50.182Z,98728.72
2023-11-10T06:22:18.511Z,98724.56
2023-11-10T06:24:46.271Z,98725.81
2023-11-10T06:27:15.124Z,98707.91
2023-11-10T06:29:44.865Z,98710.56
2023-11-10T06:32:13.450Z,98709.56
2023-11-10T06:34:42.272Z,98718.03
2023-11-10T06:37:10.349Z,98722.25
2023-11-10T06:39:38.114Z,98723.25
2023-11-10T06:42:06.331Z,98723.25
2023-11-10T06:44:34.948Z,98726.16
2023-11-10T06:47:04.654Z,98717.75
2023-11-10T06:49:33.979Z,98712.41
2023-11-10T06:52:02.192Z,98713.28
2023-11-10T06:54:29.965Z,98703.75
2023-11-10T06:57:00.018Z,98711.44
2023-11-10T06:59:29.754Z,98704.03
2023-11-10T07:01:58.475Z,98711.97
2023-11-10T07:04:27.709Z,98713.63
2023-11-10T07:06:56.278Z,98714.47
2023-11-10T07:09:26.737Z,98724.78
2023-11-10T07:11:54.643Z,98727.41
2023-11-10T07:14:22.917Z,98725.09
2023-11-10T07:16:51.472Z,98729.56
2023-11-10T07:19:19.877Z,98728.03
2023-11-10T07:21:50.491Z,98725.97
2023-11-10T07:24:18.325Z,98727.56
2023-11-10T07:26:46.192Z,98723.06
2023-11-10T07:29:14.361Z,98729.16
2023-11-10T07:31:42.126Z,98732.34
2023-11-10T07:34:11.447Z,98730.53
2023-11-10T07:36:39.920Z,98727.06
2023-11-10T07:39:09.318Z,98733.16
2023-11-10T07:41:37.050Z,98729.69
2023-11-10T07:44:05.793Z,98730.75
2023-11-10T07:46:34.393Z,98730.28
2023-11-10T07:49:02.267Z,98725.47
2023-11-10T07:51:30.969Z,98724.66
2023-11-10T07:53:58.752Z,98735.81
2023-11-10T07:56:27.857Z,98733.97
2023-11-10T07:58:55.614Z,98736.03
2023-11-10T08:01:23.780Z,98730.28
2023-11-10T08:03:52.257Z,98729.69
2023-11-10T08:06:20.688Z,98732.13
2023-11-10T08:08:48.760Z,98721.53
2023-11-10T08:11:18.973Z,98705.91
2023-11-10T08:13:48.397Z,98716.47
2023-11-10T08:16:16.511Z,98723.63
2023-11-10T08:18:44.346Z,98720.97
2023-11-10T08:21:18.417Z,98710.72
2023-11-10T08:23:46.419Z,98705.84
2023-11-10T08:28:42.698Z,98707.53
2023-11-10T08:31:11.801Z,98710.72
2023-11-10T08:33:39.652Z,98707.03
2023-11-10T08:36:08.063Z,98707.03
2023-11-10T08:38:35.786Z,98715.53
2023-11-10T08:41:03.566Z,98713.94
2023-11-10T08:43:31.724Z,98722.16
2023-11-10T08:45:59.727Z,98722.94
2023-11-10T08:48:28.870Z,98712.63
2023-11-10T08:50:57.134Z,98724.19
2023-11-10T08:53:24.859Z,98724.97
2023-11-10T08:55:52.628Z,98723.94
2023-11-10T08:58:20.563Z,98728.97
2023-11-10T09:00:48.412Z,98722.09
2023-11-10T09:03:16.227Z,98718.66
2023-11-10T09:05:45.684Z,98711.50
2023-11-10T09:08:13.472Z,98722.09
2023-11-10T09:10:41.735Z,98713.38
2023-11-10T09:13:11.002Z,98704.31
2023-11-10T09:15:38.945Z,98706.41
2023-11-10T09:18:06.890Z,98712.19
2023-11-10T09:20:35.504Z,98705.31
2023-11-10T09:23:05.151Z,98706.66
2023-11-10T09:25:32.730Z,98697.50
2023-11-10T09:28:04.419Z,98698.25
2023-11-10T09:30:34.507Z,98691.69
2023-11-10T09:33:04.195Z,98695.34
2023-11-10T09:35:34.110Z,98693.28
2023-11-10T09:38:02.179Z,98696.44
2023-11-10T09:40:31.936Z,98693.09
2023-11-10T09:43:01.005Z,98685.88
2023-11-10T09:45:29.325Z,98687.00
2023-11-10T09:47:59.540Z,98697.88
2023-11-10T09:50:30.604Z,98686.19
2023-11-10T09:53:01.437Z,98677.00
2023-11-10T09:55:31.091Z,98672.72
2023-11-10T09:57:58.771Z,98671.94
2023-11-10T10:00:27.640Z,98679.94
2023-11-10T10:02:55.423Z,98682.88
2023-11-10T10:05:23.253Z,98678.66
2023-11-10T10:07:51.600Z,98683.94
2023-11-10T10:10:21.426Z,98678.16
2023-11-10T10:12:50.742Z,98687.63
2023-11-10T10:15:27.899Z,98691.63
2023-11-10T10:17:56.140Z,98688.72
2023-11-10T10:20:23.948Z,98696.91
2023-11-10T10:22:51.903Z,98694.25
2023-11-10T10:25:21.334Z,98689.84
2023-11-10T10:27:52.041Z,98685.91
2023-11-10T10:30:20.387Z,98686.44
2023-11-10T10:32:49.253Z,98688.84
2023-11-10T10:35:17.623Z,98691.00
2023-11-10T10:37:45.806Z,98700.53
2023-11-10T10:40:15.468Z,98698.13
2023-11-10T10:42:45.142Z,98694.19
2023-11-10T10:45:14.894Z,98700.03
2023-11-10T10:47:45.284Z,98684.19
2023-11-10T10:50:14.017Z,98687.38
2023-11-10T10:52:43.661Z,98691.31
2023-11-10T10:55:13.356Z,98679.69
2023-11-10T10:57:41.048Z,98680.22
2023-11-10T11:00:15.598Z,98672.94
2023-11-10T11:02:49.655Z,98668.94
2023-11-10T11:05:33.248Z,98675.34
2023-11-10T11:08:17.097Z,98675.34
2023-11-10T11:11:03.765Z,98664.81
2023-11-10T11:14:11.676Z,98674.59
2023-11-10T11:16:55.675Z,98671.19
2023-11-10T11:19:28.697Z,98668.31
2023-11-10T11:21:58.392Z,98673.91
2023-11-10T11:24:27.966Z,98675.19
2023-11-10T11:27:00.378Z,98679.13
2023-11-10T11:29:28.241Z,98685.53
2023-11-10T11:31:58.209Z,98675.75
2023-11-10T11:34:31.282Z,98673.91
2023-11-10T11:36:59.439Z,98677.59
2023-11-10T11:39:27.419Z,98666.22
2023-11-10T11:41:56.342Z,98665.66
2023-11-10T11:44:27.832Z,98653.78
2023-11-10T11:46:57.547Z,98657.47
2023-11-10T11:49:25.287Z,98649.56
2023-11-10T11:51:55.653Z,98643.75
2023-11-10T11:54:28.186Z,98648.50
2023-11-10T11:56:57.384Z,98649.78
2023-11-10T11:59:25.836Z,98643.22
2023-11-10T12:01:55.402Z,98638.41
2023-11-10T12:04:23.834Z,98646.41
2023-11-10T12:06:53.317Z,98651.69
2023-11-10T12:09:24.764Z,98644.81
2023-11-10T12:11:52.537Z,98643.75
2023-11-10T12:14:25.034Z,98647.50
2023-11-10T12:16:53.092Z,98635.84
2023-11-10T12:19:24.186Z,98642.22
2023-11-10T12:21:52.385Z,98630.56
2023-11-10T12:24:27.834Z,98641.19
2023-11-10T12:27:00.560Z,98635.41
2023-11-10T12:29:31.071Z,98630.69
2023-11-10T12:31:59.676Z,98632.59
2023-11-10T12:34:27.686Z,98639.78
2023-11-10T12:36:57.279Z,98638.25
2023-11-10T12:39:26.468Z,98645.66
2023-11-10T12:41:54.896Z,98648.06
2023-11-10T12:44:24.560Z,98632.19
2023-11-10T12:46:53.808Z,98636.72
2023-11-10T12:49:23.162Z,98643.34
2023-11-10T12:51:52.548Z,98646.31
2023-11-10T12:54:22.758Z,98645.75
2023-11-10T12:56:52.722Z,98646.03
2023-11-10T12:59:27.757Z,98643.13
2023-11-10T13:01:56.618Z,98640.75
2023-11-10T13:04:24.727Z,98647.34
2023-11-10T13:06:53.701Z,98635.72
2023-11-10T13:09:22.769Z,98642.06
2023-11-10T13:11:52.264Z,98635.72
2023-11-10T13:14:20.751Z,98632.28
2023-11-10T13:16:49.089Z,98626.44
2023-11-10T13:19:16.828Z,98627.25
2023-11-10T13:21:44.648Z,98621.94
2023-11-10T13:24:13.594Z,98624.38
2023-11-10T13:26:42.267Z,98632.84
2023-11-10T13:29:11.600Z,98629.94
2023-11-10T13:31:39.521Z,98630.50
2023-11-10T13:34:11.182Z,98623.06
2023-11-10T13:36:39.476Z,98630.78
2023-11-10T13:39:07.630Z,98625.22
2023-11-10T13:41:43.543Z,98631.06
2023-11-10T13:44:17.623Z,98634.25
2023-11-10T13:46:45.593Z,98633.22
2023-11-10T13:49:13.563Z,98629.19
2023-11-10T13:51:42.631Z,98631.63
2023-11-10T13:54:10.424Z,98623.41
2023-11-10T13:56:40.470Z,98631.09
2023-11-10T13:59:08.850Z,98631.09
2023-11-10T14:01:38.301Z,98630.28
2023-11-10T14:04:07.812Z,98622.34
2023-11-10T14:06:36.550Z,98623.69
2023-11-10T14:09:04.499Z,98615.50
2023-11-10T14:11:34.156Z,98630.06
2023-11-10T14:14:02.280Z,98626.88
2023-11-10T14:16:30.850Z,98621.31
2023-11-10T14:18:59.916Z,98623.19
2023-11-10T14:21:29.578Z,98620.78
2023-11-10T14:23:57.296Z,98628.78
2023-11-10T14:26:26.069Z,98622.69
2023-11-10T14:28:55.162Z,98624.78
2023-11-10T14:31:23.229Z,98620.56
2023-11-10T14:33:51.679Z,98614.47
2023-11-10T14:36:21.354Z,98616.88
2023-11-10T14:38:55.911Z,98615.84
2023-11-10T14:41:25.721Z,98610.56
2023-11-10T14:43:53.861Z,98604.19
2023-11-10T14:46:22.341Z,98605.25
2023-11-10T14:48:51.631Z,98606.84
2023-11-10T14:51:23.341Z,98604.72
2023-11-10T14:53:51.590Z,98605.53
2023-11-10T14:56:19.664Z,98605.28
2023-11-10T14:58:49.127Z,98605.81
2023-11-10T15:01:20.297Z,98605.81
2023-11-10T15:03:49.831Z,98599.44
2023-11-10T15:06:21.332Z,98604.50
2023-11-10T15:08:50.558Z,98600.53
2023-11-10T15:11:18.304Z,98597.88
2023-11-10T15:13:47.405Z,98595.78
2023-11-10T15:16:17.775Z,98593.94
2023-11-10T15:18:47.470Z,98605.34
2023-11-10T15:21:15.193Z,98594.75
2023-11-10T15:23:42.929Z,98600.06
2023-11-10T15:26:12.018Z,98598.47
2023-11-10T15:28:43.045Z,98596.06
2023-11-10T15:31:13.275Z,98589.97
2023-11-10T15:33:41.133Z,98593.16
2023-11-10T15:36:10.187Z,98594.19
2023-11-10T15:38:38.896Z,98595.56
2023-11-10T15:41:07.180Z,98589.72
2023-11-10T15:43:36.343Z,98586.53
2023-11-10T15:46:04.608Z,98590.25
2023-11-10T15:48:37.533Z,98586.53
2023-11-10T15:51:11.509Z,98579.38
2023-11-10T15:53:39.254Z,98587.34
2023-11-10T15:56:08.129Z,98583.63
2023-11-10T15:58:38.814Z,98586.03
2023-11-10T16:01:06.744Z,98585.25
2023-11-10T16:03:34.783Z,98584.19
2023-11-10T16:06:04.046Z,98582.31
2023-11-10T16:08:31.754Z,98577.03
2023-11-10T16:10:59.706Z,98573.56
2023-11-10T16:13:27.721Z,98564.56
2023-11-10T16:15:57.102Z,98574.09
2023-11-10T16:18:25.363Z,98568.00
2023-11-10T16:20:53.642Z,98563.50
2023-11-10T16:23:22.019Z,98562.72
2023-11-10T16:25:50.860Z,98567.22
2023-11-10T16:28:19.882Z,98567.22
2023-11-10T16:30:47.961Z,98571.72
2023-11-10T16:33:18.092Z,98563.78
2023-11-10T16:35:46.663Z,98557.69
2023-11-10T16:38:15.175Z,98562.41
2023-11-10T16:40:43.909Z,98568.78
2023-11-10T16:43:12.365Z,98570.63
2023-11-10T16:45:40.614Z,98563.75
2023-11-10T16:48:09.345Z,98564.00
2023-11-10T16:50:38.971Z,98556.06
2023-11-10T16:53:06.507Z,98571.44
2023-11-10T16:55:34.634Z,98566.41
2023-11-10T16:58:02.774Z,98565.03
2023-11-10T17:00:39.603Z,98556.56
2023-11-10T17:03:11.741Z,98565.88
2023-11-10T17:05:47.008Z,98562.41
2023-11-10T17:08:15.176Z,98560.28
2023-11-10T17:10:42.915Z,98565.28
2023-11-10T17:13:11.148Z,98553.38
2023-11-10T17:15:40.339Z,98556.03
2023-11-10T17:18:10.777Z,98552.81
2023-11-10T17:20:38.528Z,98556.53
2023-11-10T17:23:08.345Z,98549.66
2023-11-10T17:25:36.097Z,98548.84
2023-11-10T17:28:04.077Z,98573.47
2023-11-10T17:30:32.062Z,98574.00
2023-11-10T17:32:59.901Z,98573.47
2023-11-10T17:35:27.649Z,98568.41
2023-11-10T17:37:55.599Z,98575.06
2023-11-10T17:40:24.700Z,98586.44
2023-11-10T17:42:52.506Z,98575.06
2023-11-10T17:45:20.455Z,98582.72
2023-11-10T17:47:49.743Z,98587.25
2023-11-10T17:50:18.292Z,98593.34
2023-11-10T17:52:46.274Z,98603.94
2023-11-10T17:55:14.019Z,98597.31
2023-11-10T17:57:43.448Z,98602.03
2023-11-10T18:00:12.686Z,98605.75
2023-11-10T18:02:40.735Z,98607.59
2023-11-10T18:05:09.901Z,98608.41
2023-11-10T18:07:38.014Z,98607.34
2023-11-10T18:10:06.650Z,98608.13
2023-11-10T18:12:34.375Z,98608.13
2023-11-10T18:15:03.648Z,98607.91
2023-11-10T18:17:31.425Z,98610.56
2023-11-10T18:19:59.763Z,98607.91
2023-11-10T18:25:16.566Z,98609.50
2023-11-10T18:27:44.585Z,98617.41
2023-11-10T18:30:15.463Z,98610.78
2023-11-10T18:32:44.020Z,98618.72
2023-11-10T18:35:15.094Z,98611.06
2023-11-10T18:37:43.032Z,98625.09
2023-11-10T18:40:13.147Z,98620.06
2023-11-10T18:42:46.317Z,98633.56
2023-11-10T18:45:16.610Z,98660.22
2023-11-10T18:47:44.720Z,98670.34
2023-11-10T18:50:14.997Z,98677.00
2023-11-10T18:52:43.206Z,98681.56
2023-11-10T18:55:12.383Z,98683.31
2023-11-10T18:57:40.192Z,98698.44
2023-11-10T19:00:10.953Z,98716.59
2023-11-10T19:02:40.580Z,98715.19
2023-11-10T19:05:09.108Z,98714.00
2023-11-10T19:07:36.898Z,98716.97
2023-11-10T19:10:06.768Z,98715.13
2023-11-10T19:12:34.540Z,98719.13
2023-11-10T19:15:02.839Z,98722.94
2023-11-10T19:17:30.637Z,98729.34
2023-11-10T19:19:59.924Z,98732.78
2023-11-10T19:22:28.195Z,98734.47
2023-11-10T19:24:55.941Z,98746.19
2023-11-10T19:27:23.687Z,98757.59
2023-11-10T19:29:51.841Z,98769.44
2023-11-10T19:32:20.344Z,98774.72
2023-11-10T19:34:48.497Z,98783.22
2023-11-10T19:37:18.385Z,98789.00
2023-11-10T19:39:46.214Z,98799.09
2023-11-10T19:42:14.013Z,98807.56
2023-11-10T19:44:43.048Z,98818.16
2023-11-10T19:47:10.837Z,98811.59
2023-11-10T19:49:53.428Z,98825.03
2023-11-10T19:52:25.033Z,98831.44
2023-11-10T19:57:24.689Z,98858.69
2023-11-10T20:02:23.248Z,98848.69
2023-11-10T20:04:51.642Z,98858.44
2023-11-10T20:07:20.135Z,98860.63
2023-11-10T20:09:49.465Z,98865.44
2023-11-10T20:12:17.538Z,98873.38
2023-11-10T20:14:45.371Z,98871.53
2023-11-10T20:17:13.643Z,98883.69
2023-11-10T20:19:43.223Z,98898.28
2023-11-10T20:22:11.653Z,98891.16
2023-11-10T20:24:41.996Z,98912.31
2023-11-10T20:27:11.754Z,98918.41
2023-11-10T20:29:39.303Z,98920.06
2023-11-10T20:32:09.249Z,98931.47
2023-11-10T20:34:37.500Z,98938.84
2023-11-10T20:37:05.510Z,98940.44
2023-11-10T20:39:33.530Z,98939.66
2023-11-10T20:42:01.744Z,98942.03
2023-11-10T20:44:30.848Z,98948.94
2023-11-10T20:46:58.595Z,98956.66
2023-11-10T20:49:28.381Z,98953.75
2023-11-10T20:51:56.395Z,98957.19
2023-11-10T20:54:24.171Z,98960.63
2023-11-10T20:56:52.731Z,98969.38
2023-11-10T20:59:20.439Z,98972.03
2023-11-10T21:01:49.775Z,98969.38
2023-11-10T21:04:18.149Z,98972.03
2023-11-10T21:06:46.935Z,98972.03
2023-11-10T21:09:14.835Z,98971.22
2023-11-10T21:11:43.209Z,98975.97
2023-11-10T21:14:11.003Z,98967.25
2023-11-10T21:16:39.283Z,98982.88
2023-11-10T21:19:08.981Z,98985.25
2023-11-10T21:21:36.579Z,98990.28
2023-11-10T21:24:04.628Z,98997.22
2023-11-10T21:26:32.384Z,98994.78
2023-11-10T21:29:00.115Z,99006.19
2023-11-10T21:31:28.464Z,99012.53
2023-11-10T21:33:57.406Z,99013.56
2023-11-10T21:36:26.745Z,99017.81
2023-11-10T21:38:54.542Z,99021.25
2023-11-10T21:41:28.599Z,99021.25
2023-11-10T21:43:56.380Z,99025.75
2023-11-10T21:46:24.129Z,99026.56
2023-11-10T21:48:52.289Z,99034.75
2023-11-10T21:51:20.161Z,99034.75
2023-11-10T21:53:49.252Z,99030.25
2023-11-10T21:56:18.718Z,99039.22
2023-11-10T21:58:47.586Z,99046.13
2023-11-10T22:01:17.506Z,99060.41
2023-11-10T22:03:46.023Z,99066.25
2023-11-10T22:06:14.261Z,99064.66
2023-11-10T22:08:42.469Z,99079.47
2023-11-10T22:11:13.636Z,99078.69
2023-11-10T22:13:41.659Z,99079.97
2023-11-10T22:16:09.545Z,99081.56
2023-11-10T22:18:37.571Z,99085.81
2023-11-10T22:21:05.889Z,99084.47
2023-11-10T22:23:33.654Z,99099.56
2023-11-10T22:26:03.308Z,99093.69
2023-11-10T22:28:32.298Z,99106.75
2023-11-10T22:31:01.850Z,99101.69
2023-11-10T22:33:30.427Z,99111.72
2023-11-10T22:35:58.784Z,99110.94
2023-11-10T22:38:26.550Z,99119.34
2023-11-10T22:40:54.545Z,99123.84
2023-11-10T22:43:23.033Z,99126.72
2023-11-10T22:45:52.178Z,99142.81
2023-11-10T22:48:20.326Z,99138.56
2023-11-10T22:50:48.230Z,99139.63
2023-11-10T22:53:15.956Z,99138.81
2023-11-10T22:55:43.895Z,99137.22
2023-11-10T22:58:11.625Z,99147.81
2023-11-10T23:00:45.915Z,99155.97
2023-11-10T23:03:15.899Z,99154.34
2023-11-10T23:05:43.828Z,99156.19
2023-11-10T23:08:12.461Z,99167.84
2023-11-10T23:10:42.173Z,99174.16
2023-11-10T23:13:09.770Z,99177.13
2023-11-10T23:15:38.814Z,99187.72
2023-11-10T23:18:06.784Z,99190.03
2023-11-10T23:20:35.949Z,99192.00
2023-11-10T23:23:05.192Z,99202.94
2023-11-10T23:25:33.393Z,99192.91
2023-11-10T23:28:01.283Z,99202.94
2023-11-10T23:30:29.271Z,99197.88
2023-11-10T23:32:57.057Z,99205.00
2023-11-10T23:35:24.892Z,99213.97
2023-11-10T23:37:54.260Z,99212.38
2023-11-10T23:40:23.605Z,99216.63
2023-11-10T23:42:51.598Z,99218.22
2023-11-10T23:45:19.785Z,99214.78
2023-11-10T23:47:48.924Z,99227.78
2023-11-10T23:50:16.747Z,99227.00
2023-11-10T23:52:47.697Z,99225.16
2023-11-10T23:55:16.950Z,99231.44
2023-11-10T23:57:44.742Z,99242.03
